sensor_id;sensor_type;location;lat;lon;timestamp;pressure;altitude;pressure_sealevel;temperature;humidity
64687;BME280;51113;53.646;-113.674;2023-07-13T00:01:15;93244.94;;;25.14;49.23
64687;BME280;51113;53.646;-113.674;2023-07-13T00:03:44;93234.97;;;25.07;49.61
64687;BME280;51113;53.646;-113.674;2023-07-13T00:06:13;93242.81;;;25.26;50.90
64687;BME280;51113;53.646;-113.674;2023-07-13T00:08:41;93260.38;;;25.34;50.40
64687;BME280;51113;53.646;-113.674;2023-07-13T00:11:11;93250.16;;;25.36;48.95
64687;BME280;51113;53.646;-113.674;2023-07-13T00:13:40;93258.81;;;25.30;48.98
64687;BME280;51113;53.646;-113.674;2023-07-13T00:16:10;93261.09;;;25.31;51.79
64687;BME280;51113;53.646;-113.674;2023-07-13T00:18:39;93255.69;;;25.24;51.78
64687;BME280;51113;53.646;-113.674;2023-07-13T00:21:08;93260.75;;;25.03;51.18
64687;BME280;51113;53.646;-113.674;2023-07-13T00:23:39;93258.69;;;25.19;52.40
64687;BME280;51113;53.646;-113.674;2023-07-13T00:26:09;93265.81;;;24.85;53.21
64687;BME280;51113;53.646;-113.674;2023-07-13T00:28:39;93263.41;;;24.76;51.33
64687;BME280;51113;53.646;-113.674;2023-07-13T00:31:11;93263.56;;;24.61;51.21
64687;BME280;51113;53.646;-113.674;2023-07-13T00:33:41;93267.50;;;24.44;51.45
64687;BME280;51113;53.646;-113.674;2023-07-13T00:36:10;93275.44;;;24.21;52.03
64687;BME280;51113;53.646;-113.674;2023-07-13T00:38:39;93264.13;;;24.47;52.12
64687;BME280;51113;53.646;-113.674;2023-07-13T00:41:09;93255.16;;;24.32;52.87
64687;BME280;51113;53.646;-113.674;2023-07-13T00:43:37;93252.22;;;24.37;52.70
64687;BME280;51113;53.646;-113.674;2023-07-13T00:46:26;93262.72;;;24.30;53.28
64687;BME280;51113;53.646;-113.674;2023-07-13T00:48:59;93253.44;;;24.21;53.26
64687;BME280;51113;53.646;-113.674;2023-07-13T00:52:14;93262.28;;;24.05;52.64
64687;BME280;51113;53.646;-113.674;2023-07-13T00:54:39;93260.00;;;24.27;54.51
64687;BME280;51113;53.646;-113.674;2023-07-13T00:57:12;93261.28;;;24.13;54.95
64687;BME280;51113;53.646;-113.674;2023-07-13T00:59:46;93262.53;;;23.97;55.23
64687;BME280;51113;53.646;-113.674;2023-07-13T01:02:16;93264.84;;;23.98;55.16
64687;BME280;51113;53.646;-113.674;2023-07-13T01:04:44;93266.53;;;23.87;55.20
64687;BME280;51113;53.646;-113.674;2023-07-13T01:07:13;93271.66;;;23.76;56.97
64687;BME280;51113;53.646;-113.674;2023-07-13T01:09:42;93276.59;;;23.78;56.83
64687;BME280;51113;53.646;-113.674;2023-07-13T01:12:11;93282.13;;;23.69;58.53
64687;BME280;51113;53.646;-113.674;2023-07-13T01:14:41;93287.00;;;23.48;59.34
64687;BME280;51113;53.646;-113.674;2023-07-13T01:17:11;93294.25;;;23.32;58.95
64687;BME280;51113;53.646;-113.674;2023-07-13T01:19:42;93297.47;;;23.41;59.03
64687;BME280;51113;53.646;-113.674;2023-07-13T01:22:16;93302.63;;;23.34;56.73
64687;BME280;51113;53.646;-113.674;2023-07-13T01:24:47;93298.59;;;23.20;55.87
64687;BME280;51113;53.646;-113.674;2023-07-13T01:27:21;93299.97;;;23.14;55.99
64687;BME280;51113;53.646;-113.674;2023-07-13T01:29:52;93305.34;;;23.18;56.26
64687;BME280;51113;53.646;-113.674;2023-07-13T01:32:23;93311.97;;;23.08;55.32
64687;BME280;51113;53.646;-113.674;2023-07-13T01:34:54;93309.00;;;22.94;55.80
64687;BME280;51113;53.646;-113.674;2023-07-13T01:37:25;93310.66;;;22.83;56.14
64687;BME280;51113;53.646;-113.674;2023-07-13T01:39:54;93303.06;;;22.66;57.25
64687;BME280;51113;53.646;-113.674;2023-07-13T01:42:23;93312.78;;;22.62;57.92
64687;BME280;51113;53.646;-113.674;2023-07-13T01:44:51;93321.69;;;22.53;58.43
64687;BME280;51113;53.646;-113.674;2023-07-13T01:47:35;93313.84;;;22.41;59.14
64687;BME280;51113;53.646;-113.674;2023-07-13T01:50:04;93309.47;;;22.33;59.91
64687;BME280;51113;53.646;-113.674;2023-07-13T01:52:33;93310.66;;;22.04;60.82
64687;BME280;51113;53.646;-113.674;2023-07-13T01:55:02;93313.00;;;21.93;61.71
64687;BME280;51113;53.646;-113.674;2023-07-13T01:57:30;93317.00;;;21.87;62.59
64687;BME280;51113;53.646;-113.674;2023-07-13T01:59:59;93319.72;;;21.75;63.67
64687;BME280;51113;53.646;-113.674;2023-07-13T02:02:27;93324.28;;;21.63;64.48
64687;BME280;51113;53.646;-113.674;2023-07-13T02:04:56;93323.81;;;21.45;64.35
64687;BME280;51113;53.646;-113.674;2023-07-13T02:07:24;93328.69;;;21.31;63.89
64687;BME280;51113;53.646;-113.674;2023-07-13T02:09:53;93332.34;;;21.14;63.43
64687;BME280;51113;53.646;-113.674;2023-07-13T02:12:21;93329.72;;;21.02;63.75
64687;BME280;51113;53.646;-113.674;2023-07-13T02:14:50;93331.63;;;20.89;63.91
64687;BME280;51113;53.646;-113.674;2023-07-13T02:17:19;93332.06;;;20.79;63.76
64687;BME280;51113;53.646;-113.674;2023-07-13T02:19:47;93327.56;;;20.67;63.35
64687;BME280;51113;53.646;-113.674;2023-07-13T02:22:17;93330.53;;;20.66;63.05
64687;BME280;51113;53.646;-113.674;2023-07-13T02:24:45;93325.16;;;20.62;63.25
64687;BME280;51113;53.646;-113.674;2023-07-13T02:27:17;93329.66;;;20.49;62.84
64687;BME280;51113;53.646;-113.674;2023-07-13T02:29:47;93325.25;;;20.41;62.79
64687;BME280;51113;53.646;-113.674;2023-07-13T02:32:15;93333.81;;;20.38;63.03
64687;BME280;51113;53.646;-113.674;2023-07-13T02:34:45;93341.03;;;20.29;63.33
64687;BME280;51113;53.646;-113.674;2023-07-13T02:37:14;93346.31;;;20.29;63.65
64687;BME280;51113;53.646;-113.674;2023-07-13T02:39:42;93346.75;;;20.19;62.47
64687;BME280;51113;53.646;-113.674;2023-07-13T02:42:11;93352.47;;;20.21;62.86
64687;BME280;51113;53.646;-113.674;2023-07-13T02:44:40;93350.03;;;20.16;62.16
64687;BME280;51113;53.646;-113.674;2023-07-13T02:47:08;93352.13;;;20.10;63.03
64687;BME280;51113;53.646;-113.674;2023-07-13T02:49:37;93347.81;;;20.06;63.43
64687;BME280;51113;53.646;-113.674;2023-07-13T02:52:06;93355.59;;;19.90;64.35
64687;BME280;51113;53.646;-113.674;2023-07-13T02:54:35;93353.88;;;19.73;65.46
64687;BME280;51113;53.646;-113.674;2023-07-13T02:57:03;93349.25;;;19.70;64.93
64687;BME280;51113;53.646;-113.674;2023-07-13T02:59:32;93348.03;;;19.67;65.32
64687;BME280;51113;53.646;-113.674;2023-07-13T03:02:02;93342.97;;;19.62;65.57
64687;BME280;51113;53.646;-113.674;2023-07-13T03:04:31;93345.41;;;19.47;66.06
64687;BME280;51113;53.646;-113.674;2023-07-13T03:06:59;93340.53;;;19.36;66.38
64687;BME280;51113;53.646;-113.674;2023-07-13T03:09:28;93340.09;;;19.34;66.52
64687;BME280;51113;53.646;-113.674;2023-07-13T03:11:56;93345.41;;;19.26;66.93
64687;BME280;51113;53.646;-113.674;2023-07-13T03:14:25;93333.09;;;19.18;67.53
64687;BME280;51113;53.646;-113.674;2023-07-13T03:16:54;93329.63;;;19.05;67.41
64687;BME280;51113;53.646;-113.674;2023-07-13T03:19:23;93332.75;;;18.98;67.95
64687;BME280;51113;53.646;-113.674;2023-07-13T03:21:52;93333.72;;;18.94;68.32
64687;BME280;51113;53.646;-113.674;2023-07-13T03:24:20;93344.75;;;18.87;68.75
64687;BME280;51113;53.646;-113.674;2023-07-13T03:26:53;93343.06;;;18.83;68.93
64687;BME280;51113;53.646;-113.674;2023-07-13T03:29:21;93337.34;;;18.81;69.24
64687;BME280;51113;53.646;-113.674;2023-07-13T03:31:50;93339.22;;;18.80;68.79
64687;BME280;51113;53.646;-113.674;2023-07-13T03:34:19;93338.25;;;18.85;67.93
64687;BME280;51113;53.646;-113.674;2023-07-13T03:36:47;93337.22;;;18.77;68.18
64687;BME280;51113;53.646;-113.674;2023-07-13T03:39:16;93340.00;;;18.81;67.54
64687;BME280;51113;53.646;-113.674;2023-07-13T03:41:45;93330.56;;;18.80;67.72
64687;BME280;51113;53.646;-113.674;2023-07-13T03:44:15;93331.66;;;18.79;68.03
64687;BME280;51113;53.646;-113.674;2023-07-13T03:46:44;93333.19;;;18.80;67.54
64687;BME280;51113;53.646;-113.674;2023-07-13T03:49:13;93329.19;;;18.74;67.64
64687;BME280;51113;53.646;-113.674;2023-07-13T03:51:41;93338.31;;;18.76;67.61
64687;BME280;51113;53.646;-113.674;2023-07-13T03:54:10;93329.97;;;18.74;67.51
64687;BME280;51113;53.646;-113.674;2023-07-13T03:56:39;93339.00;;;18.64;68.28
64687;BME280;51113;53.646;-113.674;2023-07-13T03:59:07;93348.13;;;18.58;68.76
64687;BME280;51113;53.646;-113.674;2023-07-13T04:01:36;93346.31;;;18.50;69.46
64687;BME280;51113;53.646;-113.674;2023-07-13T04:04:05;93346.31;;;18.50;69.24
64687;BME280;51113;53.646;-113.674;2023-07-13T04:06:34;93359.50;;;18.42;69.83
64687;BME280;51113;53.646;-113.674;2023-07-13T04:09:03;93362.28;;;18.45;69.56
64687;BME280;51113;53.646;-113.674;2023-07-13T04:11:33;93366.16;;;18.39;70.01
64687;BME280;51113;53.646;-113.674;2023-07-13T04:14:04;93369.72;;;18.34;70.69
64687;BME280;51113;53.646;-113.674;2023-07-13T04:16:32;93364.03;;;18.32;70.32
64687;BME280;51113;53.646;-113.674;2023-07-13T04:19:01;93373.44;;;18.33;70.70
64687;BME280;51113;53.646;-113.674;2023-07-13T04:21:31;93381.47;;;18.37;70.41
64687;BME280;51113;53.646;-113.674;2023-07-13T04:24:00;93378.84;;;18.37;70.39
64687;BME280;51113;53.646;-113.674;2023-07-13T04:26:29;93384.28;;;18.32;70.56
64687;BME280;51113;53.646;-113.674;2023-07-13T04:28:58;93386.00;;;18.28;70.71
64687;BME280;51113;53.646;-113.674;2023-07-13T04:31:26;93386.91;;;18.32;70.53
64687;BME280;51113;53.646;-113.674;2023-07-13T04:33:57;93401.59;;;18.33;70.84
64687;BME280;51113;53.646;-113.674;2023-07-13T04:36:26;93398.19;;;18.32;71.17
64687;BME280;51113;53.646;-113.674;2023-07-13T04:38:57;93394.34;;;18.30;70.80
64687;BME280;51113;53.646;-113.674;2023-07-13T04:41:26;93405.50;;;18.27;70.32
64687;BME280;51113;53.646;-113.674;2023-07-13T04:43:56;93406.09;;;18.32;70.09
64687;BME280;51113;53.646;-113.674;2023-07-13T04:46:25;93408.59;;;18.20;71.52
64687;BME280;51113;53.646;-113.674;2023-07-13T04:48:54;93418.22;;;18.07;72.01
64687;BME280;51113;53.646;-113.674;2023-07-13T04:51:23;93416.22;;;18.04;72.41
64687;BME280;51113;53.646;-113.674;2023-07-13T04:53:52;93414.34;;;18.14;71.68
64687;BME280;51113;53.646;-113.674;2023-07-13T04:56:27;93416.34;;;18.17;72.41
64687;BME280;51113;53.646;-113.674;2023-07-13T04:58:55;93422.56;;;17.95;73.08
64687;BME280;51113;53.646;-113.674;2023-07-13T05:01:24;93418.06;;;17.95;73.15
64687;BME280;51113;53.646;-113.674;2023-07-13T05:03:53;93415.75;;;18.02;72.23
64687;BME280;51113;53.646;-113.674;2023-07-13T05:06:23;93419.47;;;18.01;72.13
64687;BME280;51113;53.646;-113.674;2023-07-13T05:08:52;93425.34;;;17.98;72.10
64687;BME280;51113;53.646;-113.674;2023-07-13T05:11:21;93423.50;;;17.90;72.46
64687;BME280;51113;53.646;-113.674;2023-07-13T05:13:50;93422.56;;;17.86;73.11
64687;BME280;51113;53.646;-113.674;2023-07-13T05:16:19;93409.00;;;17.67;73.59
64687;BME280;51113;53.646;-113.674;2023-07-13T05:18:48;93419.78;;;17.48;74.94
64687;BME280;51113;53.646;-113.674;2023-07-13T05:21:16;93426.41;;;17.46;75.04
64687;BME280;51113;53.646;-113.674;2023-07-13T05:23:45;93419.16;;;17.42;75.35
64687;BME280;51113;53.646;-113.674;2023-07-13T05:26:14;93416.84;;;17.41;75.59
64687;BME280;51113;53.646;-113.674;2023-07-13T05:28:43;93422.25;;;17.44;75.35
64687;BME280;51113;53.646;-113.674;2023-07-13T05:31:11;93418.38;;;17.51;75.53
64687;BME280;51113;53.646;-113.674;2023-07-13T05:33:40;93417.00;;;17.44;75.61
64687;BME280;51113;53.646;-113.674;2023-07-13T05:36:09;93410.34;;;17.47;75.15
64687;BME280;51113;53.646;-113.674;2023-07-13T05:38:38;93419.00;;;17.48;75.23
64687;BME280;51113;53.646;-113.674;2023-07-13T05:41:06;93412.66;;;17.49;74.69
64687;BME280;51113;53.646;-113.674;2023-07-13T05:43:36;93410.66;;;17.46;74.87
64687;BME280;51113;53.646;-113.674;2023-07-13T05:46:04;93406.34;;;17.41;75.08
64687;BME280;51113;53.646;-113.674;2023-07-13T05:48:33;93414.50;;;17.39;75.25
64687;BME280;51113;53.646;-113.674;2023-07-13T05:51:01;93414.50;;;17.39;75.01
64687;BME280;51113;53.646;-113.674;2023-07-13T05:53:30;93417.44;;;17.38;75.34
64687;BME280;51113;53.646;-113.674;2023-07-13T05:55:59;93406.47;;;17.27;75.54
64687;BME280;51113;53.646;-113.674;2023-07-13T05:58:29;93393.34;;;17.19;76.30
64687;BME280;51113;53.646;-113.674;2023-07-13T06:01:07;93404.13;;;17.08;76.68
64687;BME280;51113;53.646;-113.674;2023-07-13T06:03:39;93396.25;;;17.00;76.97
64687;BME280;51113;53.646;-113.674;2023-07-13T06:06:10;93402.09;;;16.97;76.71
64687;BME280;51113;53.646;-113.674;2023-07-13T06:08:39;93408.44;;;16.96;77.04
64687;BME280;51113;53.646;-113.674;2023-07-13T06:11:14;93404.38;;;16.81;77.61
64687;BME280;51113;53.646;-113.674;2023-07-13T06:13:43;93408.84;;;16.81;77.88
64687;BME280;51113;53.646;-113.674;2023-07-13T06:16:13;93406.50;;;16.70;78.52
64687;BME280;51113;53.646;-113.674;2023-07-13T06:18:42;93401.41;;;16.65;79.08
64687;BME280;51113;53.646;-113.674;2023-07-13T06:21:14;93405.38;;;16.63;79.20
64687;BME280;51113;53.646;-113.674;2023-07-13T06:23:44;93400.25;;;16.58;78.79
64687;BME280;51113;53.646;-113.674;2023-07-13T06:26:13;93395.78;;;16.58;78.91
64687;BME280;51113;53.646;-113.674;2023-07-13T06:28:42;93407.50;;;16.52;78.92
64687;BME280;51113;53.646;-113.674;2023-07-13T06:31:12;93406.88;;;16.55;78.51
64687;BME280;51113;53.646;-113.674;2023-07-13T06:33:43;93400.84;;;16.46;78.99
64687;BME280;51113;53.646;-113.674;2023-07-13T06:36:12;93405.81;;;16.56;78.30
64687;BME280;51113;53.646;-113.674;2023-07-13T06:38:40;93410.88;;;16.53;78.39
64687;BME280;51113;53.646;-113.674;2023-07-13T06:41:09;93413.50;;;16.53;78.49
64687;BME280;51113;53.646;-113.674;2023-07-13T06:43:38;93409.66;;;16.50;78.83
64687;BME280;51113;53.646;-113.674;2023-07-13T06:46:07;93403.00;;;16.44;78.81
64687;BME280;51113;53.646;-113.674;2023-07-13T06:48:36;93411.13;;;16.34;79.31
64687;BME280;51113;53.646;-113.674;2023-07-13T06:51:04;93402.19;;;16.35;79.20
64687;BME280;51113;53.646;-113.674;2023-07-13T06:53:33;93405.84;;;16.25;79.49
64687;BME280;51113;53.646;-113.674;2023-07-13T06:56:02;93409.84;;;16.23;79.53
64687;BME280;51113;53.646;-113.674;2023-07-13T06:58:34;93404.25;;;16.15;80.18
64687;BME280;51113;53.646;-113.674;2023-07-13T07:01:04;93399.91;;;16.11;80.33
64687;BME280;51113;53.646;-113.674;2023-07-13T07:03:34;93408.97;;;16.05;80.60
64687;BME280;51113;53.646;-113.674;2023-07-13T07:06:15;93414.81;;;16.02;80.95
64687;BME280;51113;53.646;-113.674;2023-07-13T07:08:44;93412.91;;;15.94;80.94
64687;BME280;51113;53.646;-113.674;2023-07-13T07:11:24;93427.84;;;15.93;81.03
64687;BME280;51113;53.646;-113.674;2023-07-13T07:13:54;93425.34;;;15.88;81.17
64687;BME280;51113;53.646;-113.674;2023-07-13T07:16:24;93430.28;;;15.90;81.39
64687;BME280;51113;53.646;-113.674;2023-07-13T07:18:53;93428.09;;;15.83;81.37
64687;BME280;51113;53.646;-113.674;2023-07-13T07:21:22;93428.16;;;15.69;81.59
64687;BME280;51113;53.646;-113.674;2023-07-13T07:23:51;93426.59;;;15.68;81.74
64687;BME280;51113;53.646;-113.674;2023-07-13T07:26:20;93423.31;;;15.63;81.85
64687;BME280;51113;53.646;-113.674;2023-07-13T07:28:53;93420.22;;;15.61;82.17
64687;BME280;51113;53.646;-113.674;2023-07-13T07:31:25;93420.69;;;15.63;81.69
64687;BME280;51113;53.646;-113.674;2023-07-13T07:33:56;93415.06;;;15.56;81.96
64687;BME280;51113;53.646;-113.674;2023-07-13T07:36:25;93420.59;;;15.54;81.91
64687;BME280;51113;53.646;-113.674;2023-07-13T07:38:56;93419.06;;;15.53;81.88
64687;BME280;51113;53.646;-113.674;2023-07-13T07:41:25;93418.50;;;15.42;82.07
64687;BME280;51113;53.646;-113.674;2023-07-13T07:43:56;93422.22;;;15.28;82.47
64687;BME280;51113;53.646;-113.674;2023-07-13T07:46:25;93413.06;;;15.16;83.01
64687;BME280;51113;53.646;-113.674;2023-07-13T07:48:54;93420.34;;;15.06;83.25
64687;BME280;51113;53.646;-113.674;2023-07-13T07:51:23;93426.44;;;15.01;83.73
64687;BME280;51113;53.646;-113.674;2023-07-13T07:53:52;93421.03;;;14.98;83.97
64687;BME280;51113;53.646;-113.674;2023-07-13T07:56:20;93418.22;;;14.94;83.88
64687;BME280;51113;53.646;-113.674;2023-07-13T07:58:52;93421.44;;;14.91;83.82
64687;BME280;51113;53.646;-113.674;2023-07-13T08:01:23;93422.88;;;14.97;83.74
64687;BME280;51113;53.646;-113.674;2023-07-13T08:03:55;93416.28;;;14.86;84.23
64687;BME280;51113;53.646;-113.674;2023-07-13T08:06:27;93425.50;;;14.83;84.26
64687;BME280;51113;53.646;-113.674;2023-07-13T08:09:11;93420.94;;;14.89;83.82
64687;BME280;51113;53.646;-113.674;2023-07-13T08:11:39;93417.56;;;14.89;83.69
64687;BME280;51113;53.646;-113.674;2023-07-13T08:14:11;93417.84;;;14.87;84.01
64687;BME280;51113;53.646;-113.674;2023-07-13T08:16:39;93414.94;;;14.89;83.67
64687;BME280;51113;53.646;-113.674;2023-07-13T08:19:08;93415.03;;;14.83;83.71
64687;BME280;51113;53.646;-113.674;2023-07-13T08:21:37;93409.13;;;14.78;83.09
64687;BME280;51113;53.646;-113.674;2023-07-13T08:24:07;93419.31;;;14.79;83.27
64687;BME280;51113;53.646;-113.674;2023-07-13T08:26:36;93414.84;;;14.66;83.82
64687;BME280;51113;53.646;-113.674;2023-07-13T08:29:05;93410.00;;;14.60;84.07
64687;BME280;51113;53.646;-113.674;2023-07-13T08:31:33;93408.56;;;14.53;84.22
64687;BME280;51113;53.646;-113.674;2023-07-13T08:34:02;93405.47;;;14.51;84.28
64687;BME280;51113;53.646;-113.674;2023-07-13T08:36:30;93406.44;;;14.56;83.95
64687;BME280;51113;53.646;-113.674;2023-07-13T08:38:59;93404.69;;;14.51;84.00
64687;BME280;51113;53.646;-113.674;2023-07-13T08:41:28;93399.63;;;14.41;84.33
64687;BME280;51113;53.646;-113.674;2023-07-13T08:43:59;93399.13;;;14.39;84.58
64687;BME280;51113;53.646;-113.674;2023-07-13T08:46:40;93398.75;;;14.32;84.64
64687;BME280;51113;53.646;-113.674;2023-07-13T08:49:15;93395.84;;;14.33;84.34
64687;BME280;51113;53.646;-113.674;2023-07-13T08:52:00;93401.94;;;14.29;84.78
64687;BME280;51113;53.646;-113.674;2023-07-13T08:54:36;93403.00;;;14.28;84.92
64687;BME280;51113;53.646;-113.674;2023-07-13T08:57:16;93392.25;;;14.15;84.99
64687;BME280;51113;53.646;-113.674;2023-07-13T08:59:47;93396.50;;;14.11;85.44
64687;BME280;51113;53.646;-113.674;2023-07-13T09:02:26;93401.91;;;14.01;86.22
64687;BME280;51113;53.646;-113.674;2023-07-13T09:10:28;93405.88;;;14.12;86.10
64687;BME280;51113;53.646;-113.674;2023-07-13T09:15:39;93406.28;;;14.33;85.36
64687;BME280;51113;53.646;-113.674;2023-07-13T09:18:42;93402.03;;;14.37;84.78
64687;BME280;51113;53.646;-113.674;2023-07-13T09:21:50;93407.56;;;14.36;84.82
64687;BME280;51113;53.646;-113.674;2023-07-13T09:26:50;93418.78;;;14.36;84.87
64687;BME280;51113;53.646;-113.674;2023-07-13T09:29:40;93414.34;;;14.37;84.54
64687;BME280;51113;53.646;-113.674;2023-07-13T09:32:13;93415.28;;;14.27;84.64
64687;BME280;51113;53.646;-113.674;2023-07-13T09:34:50;93413.25;;;14.24;84.73
64687;BME280;51113;53.646;-113.674;2023-07-13T09:37:31;93410.44;;;14.20;84.96
64687;BME280;51113;53.646;-113.674;2023-07-13T09:40:02;93409.88;;;14.23;85.04
64687;BME280;51113;53.646;-113.674;2023-07-13T09:42:33;93413.13;;;14.15;84.87
64687;BME280;51113;53.646;-113.674;2023-07-13T09:45:02;93406.47;;;14.09;85.21
64687;BME280;51113;53.646;-113.674;2023-07-13T09:47:39;93421.72;;;14.02;85.47
64687;BME280;51113;53.646;-113.674;2023-07-13T09:50:14;93414.75;;;13.98;85.69
64687;BME280;51113;53.646;-113.674;2023-07-13T09:52:48;93419.00;;;13.94;85.67
64687;BME280;51113;53.646;-113.674;2023-07-13T09:55:32;93419.44;;;13.82;85.71
64687;BME280;51113;53.646;-113.674;2023-07-13T09:58:17;93434.69;;;13.75;86.08
64687;BME280;51113;53.646;-113.674;2023-07-13T10:00:59;93422.50;;;13.70;86.24
64687;BME280;51113;53.646;-113.674;2023-07-13T10:03:31;93414.94;;;13.69;86.25
64687;BME280;51113;53.646;-113.674;2023-07-13T10:06:14;93419.75;;;13.62;86.29
64687;BME280;51113;53.646;-113.674;2023-07-13T10:08:45;93419.34;;;13.54;86.53
64687;BME280;51113;53.646;-113.674;2023-07-13T10:11:26;93422.44;;;13.56;86.59
64687;BME280;51113;53.646;-113.674;2023-07-13T10:14:00;93428.03;;;13.50;86.99
64687;BME280;51113;53.646;-113.674;2023-07-13T10:16:33;93433.03;;;13.46;86.91
64687;BME280;51113;53.646;-113.674;2023-07-13T10:19:07;93426.69;;;13.34;87.49
64687;BME280;51113;53.646;-113.674;2023-07-13T10:22:00;93434.16;;;13.40;87.29
64687;BME280;51113;53.646;-113.674;2023-07-13T10:24:33;93436.63;;;13.32;87.14
64687;BME280;51113;53.646;-113.674;2023-07-13T10:27:21;93439.81;;;13.47;87.21
64687;BME280;51113;53.646;-113.674;2023-07-13T10:32:33;93442.84;;;13.54;86.60
64687;BME280;51113;53.646;-113.674;2023-07-13T10:35:02;93438.59;;;13.58;86.79
64687;BME280;51113;53.646;-113.674;2023-07-13T10:37:42;93436.97;;;13.44;86.78
64687;BME280;51113;53.646;-113.674;2023-07-13T10:40:20;93437.75;;;13.44;86.53
64687;BME280;51113;53.646;-113.674;2023-07-13T10:42:53;93441.84;;;13.32;87.01
64687;BME280;51113;53.646;-113.674;2023-07-13T10:45:24;93427.41;;;13.20;87.35
64687;BME280;51113;53.646;-113.674;2023-07-13T10:47:54;93438.53;;;13.26;87.23
64687;BME280;51113;53.646;-113.674;2023-07-13T10:50:26;93433.31;;;13.26;87.27
64687;BME280;51113;53.646;-113.674;2023-07-13T10:53:48;93443.75;;;13.26;87.45
64687;BME280;51113;53.646;-113.674;2023-07-13T10:58:40;93441.78;;;13.18;87.55
64687;BME280;51113;53.646;-113.674;2023-07-13T11:01:12;93437.66;;;13.12;87.35
64687;BME280;51113;53.646;-113.674;2023-07-13T11:03:56;93450.09;;;13.20;87.61
64687;BME280;51113;53.646;-113.674;2023-07-13T11:09:49;93453.41;;;13.02;87.74
64687;BME280;51113;53.646;-113.674;2023-07-13T11:11:49;93450.81;;;13.02;88.50
64687;BME280;51113;53.646;-113.674;2023-07-13T11:14:42;93446.78;;;12.90;88.51
64687;BME280;51113;53.646;-113.674;2023-07-13T11:20:20;93450.94;;;12.91;88.87
64687;BME280;51113;53.646;-113.674;2023-07-13T11:22:52;93458.47;;;12.93;88.94
64687;BME280;51113;53.646;-113.674;2023-07-13T11:30:59;93464.81;;;13.30;88.51
64687;BME280;51113;53.646;-113.674;2023-07-13T11:36:21;93460.59;;;13.34;88.29
64687;BME280;51113;53.646;-113.674;2023-07-13T11:39:02;93468.72;;;13.32;88.67
64687;BME280;51113;53.646;-113.674;2023-07-13T11:41:48;93465.09;;;13.28;89.06
64687;BME280;51113;53.646;-113.674;2023-07-13T11:44:21;93469.91;;;13.21;88.93
64687;BME280;51113;53.646;-113.674;2023-07-13T11:46:56;93469.94;;;13.16;89.08
64687;BME280;51113;53.646;-113.674;2023-07-13T11:49:30;93470.78;;;13.11;89.03
64687;BME280;51113;53.646;-113.674;2023-07-13T11:52:00;93473.09;;;13.13;89.49
64687;BME280;51113;53.646;-113.674;2023-07-13T11:54:33;93474.63;;;13.19;89.35
64687;BME280;51113;53.646;-113.674;2023-07-13T11:57:36;93473.88;;;13.13;89.28
64687;BME280;51113;53.646;-113.674;2023-07-13T12:00:14;93476.47;;;13.13;89.57
64687;BME280;51113;53.646;-113.674;2023-07-13T12:02:47;93481.97;;;13.12;89.41
64687;BME280;51113;53.646;-113.674;2023-07-13T12:05:20;93477.03;;;13.10;89.76
64687;BME280;51113;53.646;-113.674;2023-07-13T12:07:49;93476.97;;;13.15;89.75
64687;BME280;51113;53.646;-113.674;2023-07-13T12:12:59;93482.31;;;13.29;89.84
64687;BME280;51113;53.646;-113.674;2023-07-13T12:15:40;93485.63;;;13.35;89.70
64687;BME280;51113;53.646;-113.674;2023-07-13T12:18:19;93487.13;;;13.41;89.76
64687;BME280;51113;53.646;-113.674;2023-07-13T12:20:49;93480.78;;;13.47;89.29
64687;BME280;51113;53.646;-113.674;2023-07-13T12:23:32;93480.78;;;13.47;89.45
64687;BME280;51113;53.646;-113.674;2023-07-13T12:26:03;93476.81;;;13.49;89.33
64687;BME280;51113;53.646;-113.674;2023-07-13T12:31:07;93479.06;;;13.56;89.35
64687;BME280;51113;53.646;-113.674;2023-07-13T12:33:45;93479.84;;;13.56;89.19
64687;BME280;51113;53.646;-113.674;2023-07-13T12:36:15;93475.06;;;13.64;89.28
64687;BME280;51113;53.646;-113.674;2023-07-13T12:38:45;93474.50;;;13.67;89.24
64687;BME280;51113;53.646;-113.674;2023-07-13T12:41:15;93478.50;;;13.78;89.11
64687;BME280;51113;53.646;-113.674;2023-07-13T12:43:45;93476.09;;;13.81;88.84
64687;BME280;51113;53.646;-113.674;2023-07-13T12:46:19;93478.44;;;13.83;89.01
64687;BME280;51113;53.646;-113.674;2023-07-13T12:48:51;93479.41;;;13.87;88.73
64687;BME280;51113;53.646;-113.674;2023-07-13T12:51:34;93472.34;;;13.87;88.81
64687;BME280;51113;53.646;-113.674;2023-07-13T12:54:14;93488.22;;;13.91;88.52
64687;BME280;51113;53.646;-113.674;2023-07-13T12:56:44;93471.00;;;13.90;88.15
64687;BME280;51113;53.646;-113.674;2023-07-13T12:59:19;93485.81;;;13.95;88.38
64687;BME280;51113;53.646;-113.674;2023-07-13T13:01:49;93478.75;;;13.95;88.54
64687;BME280;51113;53.646;-113.674;2023-07-13T13:04:18;93477.69;;;13.96;88.37
64687;BME280;51113;53.646;-113.674;2023-07-13T13:07:01;93475.28;;;14.00;88.17
64687;BME280;51113;53.646;-113.674;2023-07-13T13:09:31;93477.34;;;14.03;88.01
64687;BME280;51113;53.646;-113.674;2023-07-13T13:11:59;93478.13;;;14.03;88.25
64687;BME280;51113;53.646;-113.674;2023-07-13T13:14:28;93477.53;;;14.06;88.15
64687;BME280;51113;53.646;-113.674;2023-07-13T13:16:58;93477.94;;;14.13;87.83
64687;BME280;51113;53.646;-113.674;2023-07-13T13:19:29;93473.00;;;14.12;88.13
64687;BME280;51113;53.646;-113.674;2023-07-13T13:21:59;93479.91;;;14.21;87.81
64687;BME280;51113;53.646;-113.674;2023-07-13T13:24:28;93474.59;;;14.27;87.69
64687;BME280;51113;53.646;-113.674;2023-07-13T13:26:57;93481.28;;;14.33;87.57
64687;BME280;51113;53.646;-113.674;2023-07-13T13:29:26;93484.31;;;14.40;87.38